createdAt,value
2022-08-07T00:00:14.761Z,13.6
2022-08-07T00:03:00.308Z,13.6
2022-08-07T00:05:26.142Z,13.6
2022-08-07T00:07:58.445Z,13.6
2022-08-07T00:10:34.837Z,13.7
2022-08-07T00:13:01.978Z,13.7
2022-08-07T00:15:36.309Z,13.6
2022-08-07T00:18:18.998Z,13.6
2022-08-07T00:20:40.820Z,13.6
2022-08-07T00:23:13.458Z,13.5
2022-08-07T00:25:45.939Z,13.4
2022-08-07T00:28:16.561Z,13.5
2022-08-07T00:30:45.577Z,13.6
2022-08-07T00:33:22.758Z,13.6
2022-08-07T00:38:31.483Z,13.7
2022-08-07T00:41:02.947Z,13.7
2022-08-07T00:44:00.060Z,13.8
2022-08-07T00:46:07.892Z,14.0
2022-08-07T00:48:42.122Z,14.0
2022-08-07T00:51:13.396Z,14.0
2022-08-07T00:53:50.068Z,14.0
2022-08-07T00:56:13.930Z,14.0
2022-08-07T00:58:40.970Z,14.0
2022-08-07T01:01:24.730Z,14.0
2022-08-07T01:03:59.747Z,14.0
2022-08-07T01:06:25.172Z,13.9
2022-08-07T01:08:58.489Z,13.9
2022-08-07T01:12:05.230Z,13.8
2022-08-07T01:13:55.891Z,13.7
2022-08-07T01:19:18.628Z,13.8
2022-08-07T01:21:44.541Z,13.8
2022-08-07T01:24:09.054Z,13.8
2022-08-07T01:26:41.928Z,13.7
2022-08-07T01:29:27.588Z,13.6
2022-08-07T01:31:50.993Z,13.6
2022-08-07T01:34:30.737Z,13.5
2022-08-07T01:36:58.369Z,13.4
2022-08-07T01:39:39.756Z,13.3
2022-08-07T01:44:35.435Z,13.2
2022-08-07T01:47:14.737Z,13.1
2022-08-07T01:49:41.485Z,13.0
2022-08-07T01:52:15.329Z,12.9
2022-08-07T01:54:37.564Z,12.8
2022-08-07T01:59:49.396Z,12.6
2022-08-07T02:02:32.404Z,12.5
2022-08-07T02:04:57.358Z,12.5
2022-08-07T02:07:35.711Z,12.4
2022-08-07T02:09:52.527Z,12.4
2022-08-07T02:12:29.143Z,12.4
2022-08-07T02:15:11.530Z,12.3
2022-08-07T02:17:34.784Z,12.3
2022-08-07T02:20:17.333Z,12.2
2022-08-07T02:22:43.731Z,12.2
2022-08-07T02:25:17.235Z,12.1
2022-08-07T02:27:54.321Z,12.1
2022-08-07T02:30:25.908Z,12.0
2022-08-07T02:33:00.335Z,12.0
2022-08-07T02:36:27.379Z,12.0
2022-08-07T02:40:30.407Z,12.0
2022-08-07T02:43:07.819Z,12.0
2022-08-07T02:45:57.821Z,12.0
2022-08-07T02:48:15.300Z,12.0
2022-08-07T02:50:36.214Z,12.0
2022-08-07T02:53:06.933Z,12.0
2022-08-07T02:56:02.071Z,12.0
2022-08-07T02:58:22.097Z,12.0
2022-08-07T03:00:51.202Z,12.1
2022-08-07T03:03:25.251Z,12.1
2022-08-07T03:05:57.189Z,12.1
2022-08-07T03:08:27.063Z,12.1
2022-08-07T03:10:52.056Z,12.1
2022-08-07T03:13:38.953Z,12.1
2022-08-07T03:16:02.313Z,12.1
2022-08-07T03:21:11.201Z,12.0
2022-08-07T03:24:18.730Z,11.9
2022-08-07T03:26:21.147Z,11.9
2022-08-07T03:28:49.145Z,11.7
2022-08-07T03:31:26.185Z,11.7
2022-08-07T03:33:53.721Z,11.7
2022-08-07T03:36:22.594Z,11.6
2022-08-07T03:38:48.946Z,11.6
2022-08-07T03:41:41.894Z,11.6
2022-08-07T03:44:02.460Z,11.4
2022-08-07T03:46:34.572Z,11.4
2022-08-07T03:49:04.938Z,11.4
2022-08-07T03:51:46.890Z,11.3
2022-08-07T03:54:33.508Z,11.3
2022-08-07T03:56:59.721Z,11.2
2022-08-07T04:01:53.165Z,10.8
2022-08-07T04:04:24.599Z,10.6
2022-08-07T04:06:55.617Z,10.4
2022-08-07T04:09:29.421Z,10.4
2022-08-07T04:12:25.965Z,10.5
2022-08-07T04:14:37.196Z,10.4
2022-08-07T04:17:00.474Z,10.4
2022-08-07T04:19:34.174Z,10.5
2022-08-07T04:22:04.876Z,10.6
2022-08-07T04:24:50.498Z,10.7
2022-08-07T04:27:15.022Z,10.9
2022-08-07T04:29:58.818Z,11.0
2022-08-07T04:32:18.961Z,11.2
2022-08-07T04:34:49.093Z,11.2
2022-08-07T04:37:21.506Z,11.4
2022-08-07T04:42:33.918Z,11.8
2022-08-07T04:45:07.939Z,12.0
2022-08-07T04:47:56.821Z,12.2
2022-08-07T04:50:04.373Z,12.5
2022-08-07T04:52:37.837Z,12.6
2022-08-07T04:58:09.036Z,12.8
2022-08-07T05:00:31.190Z,12.9
2022-08-07T05:01:02.921Z,13.0
2022-08-07T05:02:50.648Z,13.0
2022-08-07T05:05:52.438Z,13.2
2022-08-07T05:08:04.129Z,13.4
2022-08-07T05:10:30.682Z,13.6
2022-08-07T05:13:10.170Z,13.8
2022-08-07T05:15:33.118Z,14.0
2022-08-07T05:18:06.273Z,14.0
2022-08-07T05:23:15.379Z,14.2
2022-08-07T05:26:11.427Z,14.2
2022-08-07T05:28:21.409Z,14.4
2022-08-07T05:30:48.831Z,14.5
2022-08-07T05:33:14.781Z,14.6
2022-08-07T05:35:47.777Z,14.9
2022-08-07T05:38:57.983Z,15.4
2022-08-07T05:40:59.051Z,15.6
2022-08-07T05:43:43.272Z,15.7
2022-08-07T05:45:56.937Z,15.9
2022-08-07T05:48:28.216Z,16.0
2022-08-07T05:51:03.356Z,16.0
2022-08-07T05:54:08.743Z,16.1
2022-08-07T05:56:12.442Z,16.4
2022-08-07T05:58:41.030Z,16.5
2022-08-07T06:03:53.337Z,16.6
2022-08-07T06:06:19.717Z,16.3
2022-08-07T06:08:58.236Z,16.0
2022-08-07T06:11:25.353Z,16.0
2022-08-07T06:14:11.067Z,16.3
2022-08-07T06:16:29.496Z,16.3
2022-08-07T06:19:01.114Z,16.3
2022-08-07T06:22:12.164Z,16.6
2022-08-07T06:24:38.956Z,16.8
2022-08-07T06:26:44.476Z,17.0
2022-08-07T06:29:15.441Z,17.3
2022-08-07T06:31:50.548Z,17.4
2022-08-07T06:34:13.703Z,17.6
2022-08-07T06:36:55.651Z,17.7
2022-08-07T06:40:13.798Z,18.1
2022-08-07T06:44:26.479Z,18.2
2022-08-07T06:47:09.924Z,18.3
2022-08-07T06:49:27.970Z,18.4
2022-08-07T06:52:14.180Z,18.4
2022-08-07T06:55:30.934Z,18.8
2022-08-07T06:57:15.330Z,18.8
2022-08-07T07:00:15.208Z,18.8
2022-08-07T07:02:26.980Z,19.2
2022-08-07T07:04:54.855Z,19.2
2022-08-07T07:07:58.912Z,19.2
2022-08-07T07:10:00.176Z,19.4
2022-08-07T07:12:31.238Z,19.4
2022-08-07T07:14:58.933Z,19.8
2022-08-07T07:17:28.917Z,19.7
2022-08-07T07:20:05.830Z,19.5
2022-08-07T07:25:14.395Z,20.0
2022-08-07T07:27:55.406Z,19.8
2022-08-07T07:30:11.936Z,19.6
2022-08-07T07:32:42.947Z,19.9
2022-08-07T07:35:25.721Z,19.9
2022-08-07T07:38:02.321Z,19.8
2022-08-07T07:40:26.254Z,20.1
2022-08-07T07:42:57.870Z,20.2
2022-08-07T07:45:24.662Z,20.2
2022-08-07T07:48:02.732Z,20.0
2022-08-07T07:50:39.248Z,20.3
2022-08-07T07:53:13.809Z,20.7
2022-08-07T07:55:45.495Z,20.7
2022-08-07T07:58:06.546Z,20.5
2022-08-07T08:00:38.954Z,20.5
2022-08-07T08:05:55.748Z,20.4
2022-08-07T08:08:34.201Z,20.7
2022-08-07T08:10:50.666Z,20.3
2022-08-07T08:13:33.356Z,20.4
2022-08-07T08:15:57.594Z,20.4
2022-08-07T08:18:35.561Z,20.6
2022-08-07T08:21:08.447Z,20.4
2022-08-07T08:23:42.961Z,20.5
2022-08-07T08:26:07.107Z,20.8
2022-08-07T08:28:39.030Z,21.2
2022-08-07T08:31:14.760Z,21.1
2022-08-07T08:33:50.232Z,20.7
2022-08-07T08:36:29.526Z,21.0
2022-08-07T08:38:58.112Z,21.1
2022-08-07T08:41:20.597Z,21.3
2022-08-07T08:46:29.720Z,21.5
2022-08-07T08:49:05.354Z,21.4
2022-08-07T08:51:50.016Z,21.5
2022-08-07T08:54:11.857Z,21.4
2022-08-07T08:56:35.329Z,21.4
2022-08-07T08:59:12.927Z,21.4
2022-08-07T09:01:39.929Z,21.6
2022-08-07T09:04:25.660Z,21.1
2022-08-07T09:06:56.359Z,21.2
2022-08-07T09:09:29.943Z,21.5
2022-08-07T09:12:00.752Z,21.7
2022-08-07T09:14:23.229Z,21.8
2022-08-07T09:17:01.201Z,21.6
2022-08-07T09:19:52.445Z,21.7
2022-08-07T09:22:23.261Z,21.7
2022-08-07T09:27:09.050Z,21.2
2022-08-07T09:30:02.674Z,21.0
2022-08-07T09:32:22.970Z,21.3
2022-08-07T09:34:54.714Z,21.4
2022-08-07T09:37:16.188Z,21.6
2022-08-07T09:39:53.376Z,21.6
2022-08-07T09:42:22.818Z,21.5
2022-08-07T09:47:19.931Z,21.6
2022-08-07T09:48:40.056Z,21.4
2022-08-07T09:52:39.618Z,21.2
2022-08-07T09:55:02.436Z,21.6
2022-08-07T09:57:36.648Z,21.5
2022-08-07T10:00:07.763Z,21.8
2022-08-07T10:02:55.056Z,22.2
2022-08-07T10:07:52.466Z,22.0
2022-08-07T10:10:24.645Z,21.9
2022-08-07T10:12:54.374Z,21.7
2022-08-07T10:15:30.934Z,21.4
2022-08-07T10:18:05.568Z,21.6
2022-08-07T10:20:37.448Z,21.7
2022-08-07T10:23:00.798Z,21.8
2022-08-07T10:25:42.654Z,21.8
2022-08-07T10:28:04.253Z,22.2
2022-08-07T10:30:45.293Z,22.4
2022-08-07T10:33:23.569Z,22.6
2022-08-07T10:35:53.837Z,22.5
2022-08-07T10:38:21.450Z,22.2
2022-08-07T10:40:49.943Z,22.5
2022-08-07T10:43:21.278Z,22.4
2022-08-07T10:48:34.759Z,22.2
2022-08-07T10:51:06.785Z,22.2
2022-08-07T10:53:41.821Z,22.5
2022-08-07T10:56:00.765Z,22.8
2022-08-07T10:58:33.051Z,23.1
2022-08-07T11:01:22.191Z,23.3
2022-08-07T11:03:51.284Z,23.4
2022-08-07T11:06:21.889Z,23.3
2022-08-07T11:08:44.795Z,23.0
2022-08-07T11:11:21.431Z,22.8
2022-08-07T11:14:42.861Z,22.7
2022-08-07T11:16:29.892Z,23.0
2022-08-07T11:19:05.089Z,23.2
2022-08-07T11:21:32.339Z,22.8
2022-08-07T11:24:01.222Z,22.5
2022-08-07T11:29:13.033Z,22.8
2022-08-07T11:31:49.562Z,23.0
2022-08-07T11:34:16.440Z,22.9
2022-08-07T11:36:42.671Z,23.0
2022-08-07T11:39:21.875Z,23.4
2022-08-07T11:42:00.627Z,23.2
2022-08-07T11:44:30.584Z,23.6
2022-08-07T11:47:02.444Z,23.5
2022-08-07T11:49:28.782Z,23.2
2022-08-07T11:51:58.131Z,23.4
2022-08-07T11:54:29.203Z,23.4
2022-08-07T11:57:15.194Z,23.5
2022-08-07T12:00:09.076Z,23.4
2022-08-07T12:02:17.860Z,23.5
2022-08-07T12:04:42.632Z,23.6
2022-08-07T12:09:46.078Z,23.6
2022-08-07T12:12:27.317Z,23.6
2022-08-07T12:15:00.521Z,23.2
2022-08-07T12:17:25.803Z,23.2
2022-08-07T12:20:02.529Z,23.2
2022-08-07T12:22:38.355Z,23.3
2022-08-07T12:25:07.475Z,23.2
2022-08-07T12:28:04.159Z,23.4
2022-08-07T12:30:15.357Z,23.4
2022-08-07T12:32:40.647Z,23.4
2022-08-07T12:35:13.712Z,23.8
2022-08-07T12:38:10.568Z,24.4
2022-08-07T12:40:36.611Z,24.8
2022-08-07T12:43:00.280Z,25.2
2022-08-07T12:45:25.277Z,25.2
2022-08-07T12:50:34.709Z,24.8
2022-08-07T12:52:57.311Z,24.7
2022-08-07T12:55:40.916Z,25.0
2022-08-07T12:58:10.505Z,24.5
2022-08-07T13:00:41.842Z,24.8
2022-08-07T13:03:13.097Z,25.1
2022-08-07T13:06:02.274Z,25.5
2022-08-07T13:08:18.515Z,25.6
2022-08-07T13:10:51.936Z,25.5
2022-08-07T13:13:47.781Z,25.6
2022-08-07T13:15:59.786Z,25.6
2022-08-07T13:18:31.977Z,25.8
2022-08-07T13:20:59.339Z,25.6
2022-08-07T13:24:00.396Z,24.8
2022-08-07T13:26:10.546Z,24.7
2022-08-07T13:31:13.290Z,25.0
2022-08-07T13:34:32.487Z,25.5
2022-08-07T13:36:08.694Z,24.9
2022-08-07T13:38:42.021Z,25.4
2022-08-07T13:41:23.121Z,25.6
2022-08-07T13:43:56.032Z,25.8
2022-08-07T13:46:31.303Z,25.6
2022-08-07T13:48:59.947Z,25.5
2022-08-07T13:52:04.615Z,25.9
2022-08-07T13:54:01.852Z,25.1
2022-08-07T13:56:35.253Z,25.3
2022-08-07T13:59:14.072Z,25.4
2022-08-07T14:01:50.916Z,25.3
2022-08-07T14:04:12.427Z,25.3
2022-08-07T14:06:40.135Z,25.6
2022-08-07T14:12:00.612Z,26.2
2022-08-07T14:14:26.280Z,26.4
2022-08-07T14:16:57.115Z,26.2
2022-08-07T14:20:41.391Z,26.2
2022-08-07T14:22:02.728Z,26.0
2022-08-07T14:24:35.793Z,25.8
2022-08-07T14:27:16.336Z,25.3
2022-08-07T15:52:09.485Z,25.8
2022-08-07T15:52:51.850Z,26.0
2022-08-07T15:53:25.622Z,26.0
2022-08-07T15:54:24.362Z,25.6
2022-08-07T15:55:02.576Z,25.7
2022-08-07T15:56:11.936Z,25.6
2022-08-07T15:56:44.793Z,25.3
2022-08-07T15:57:40.472Z,25.3
2022-08-07T15:58:32.545Z,25.2
2022-08-07T15:59:16.237Z,25.7
2022-08-07T16:00:00.064Z,25.9
2022-08-07T16:00:54.519Z,25.6
2022-08-07T16:01:38.887Z,25.4
2022-08-07T16:02:25.704Z,25.0
2022-08-07T16:02:57.846Z,24.7
2022-08-07T16:03:58.525Z,24.9
2022-08-07T16:04:37.107Z,25.1
2022-08-07T16:05:15.247Z,25.0
2022-08-07T16:05:53.119Z,24.9
2022-08-07T16:06:26.391Z,24.8
2022-08-07T16:06:59.296Z,24.7
2022-08-07T16:08:52.123Z,24.7
2022-08-07T16:09:34.912Z,24.9
2022-08-07T16:10:14.701Z,24.9
2022-08-07T16:10:47.274Z,24.6
2022-08-07T16:11:39.836Z,24.4
2022-08-07T16:12:12.084Z,24.7
2022-08-07T16:13:01.471Z,24.8
2022-08-07T16:14:08.982Z,24.5
2022-08-07T16:14:40.117Z,24.6
2022-08-07T16:15:41.953Z,24.6
2022-08-07T16:17:15.272Z,24.4
2022-08-07T16:19:00.589Z,24.4
2022-08-07T16:19:58.575Z,24.6
2022-08-07T16:21:53.578Z,24.5
2022-08-07T16:23:10.018Z,24.4
2022-08-07T16:24:33.555Z,24.4
2022-08-07T16:25:22.734Z,24.3
2022-08-07T16:26:30.588Z,24.2
2022-08-07T16:27:38.985Z,24.2
2022-08-07T16:30:08.089Z,24.3
2022-08-07T16:31:10.207Z,24.3
2022-08-07T16:32:46.661Z,24.0
2022-08-07T16:34:33.960Z,24.0
2022-08-07T16:35:50.459Z,24.1
2022-08-07T16:37:02.190Z,24.2
2022-08-07T16:38:44.333Z,24.2
2022-08-07T16:39:58.819Z,24.4
2022-08-07T16:41:48.613Z,24.4
2022-08-07T16:44:40.776Z,24.3
2022-08-07T16:47:09.155Z,24.1
2022-08-07T16:50:19.870Z,24.0
2022-08-07T16:54:32.855Z,24.1
2022-08-07T16:57:03.919Z,24.0
2022-08-07T16:59:44.125Z,24.0
2022-08-07T17:02:03.604Z,23.9
2022-08-07T17:04:50.757Z,23.8
2022-08-07T17:07:28.079Z,23.7
2022-08-07T17:10:05.630Z,23.7
2022-08-07T17:12:33.676Z,23.7
2022-08-07T17:14:51.288Z,23.6
2022-08-07T17:17:16.003Z,23.6
2022-08-07T17:20:01.220Z,23.6
2022-08-07T17:22:36.720Z,23.5
2022-08-07T17:24:58.486Z,23.5
2022-08-07T17:27:32.330Z,23.4
2022-08-07T17:30:13.381Z,23.2
2022-08-07T17:35:40.288Z,23.2
2022-08-07T17:38:05.320Z,23.2
2022-08-07T17:40:14.846Z,23.2
2022-08-07T17:42:58.018Z,23.2
2022-08-07T17:45:23.520Z,23.4
2022-08-07T17:47:55.851Z,23.4
2022-08-07T17:50:31.168Z,23.4
2022-08-07T17:52:58.881Z,23.2
2022-08-07T17:55:55.091Z,23.2
2022-08-07T17:58:01.764Z,23.2
2022-08-07T18:00:27.688Z,23.3
2022-08-07T18:03:09.759Z,23.3
2022-08-07T18:06:02.605Z,23.3
2022-08-07T18:08:14.579Z,23.3
2022-08-07T18:12:08.486Z,23.1
2022-08-07T18:15:41.304Z,23.0
2022-08-07T18:18:33.305Z,22.8
2022-08-07T18:22:05.308Z,22.6
2022-08-07T18:23:42.813Z,22.4
2022-08-07T18:26:01.155Z,22.4
2022-08-07T18:28:34.645Z,22.2
2022-08-07T18:30:58.760Z,22.1
2022-08-07T18:33:55.482Z,22.0
2022-08-07T18:36:11.755Z,21.8
2022-08-07T18:38:54.118Z,21.7
2022-08-07T18:41:16.694Z,21.6
2022-08-07T18:43:49.072Z,21.4
2022-08-07T18:46:26.135Z,21.2
2022-08-07T18:50:06.498Z,20.9
2022-08-07T18:52:34.549Z,20.8
2022-08-07T18:56:30.616Z,20.6
2022-08-07T18:58:57.188Z,20.4
2022-08-07T19:02:17.080Z,20.4
2022-08-07T19:06:48.130Z,20.2
2022-08-07T19:09:54.619Z,20.0
2022-08-07T19:12:04.443Z,19.7
2022-08-07T19:14:20.160Z,19.6
2022-08-07T19:17:01.068Z,19.6
2022-08-07T19:19:26.771Z,19.4
2022-08-07T19:22:04.013Z,19.3
2022-08-07T19:24:30.274Z,19.2
2022-08-07T19:27:09.420Z,19.1
2022-08-07T19:32:17.277Z,19.1
2022-08-07T19:33:13.483Z,19.0
2022-08-07T19:37:10.481Z,18.9
2022-08-07T19:39:57.070Z,18.8
2022-08-07T19:42:22.643Z,18.7
2022-08-07T19:44:53.375Z,18.7
2022-08-07T19:47:25.965Z,18.6
2022-08-07T19:50:02.659Z,18.4
2022-08-07T19:52:27.942Z,18.4
2022-08-07T19:54:59.773Z,18.3
2022-08-07T19:57:53.003Z,18.2
2022-08-07T20:00:03.592Z,18.0
2022-08-07T20:02:34.563Z,18.0
2022-08-07T20:05:07.655Z,17.9
2022-08-07T20:07:45.780Z,17.8
2022-08-07T20:10:34.779Z,17.6
2022-08-07T20:12:42.957Z,17.5
2022-08-07T20:18:01.877Z,17.3
2022-08-07T20:20:22.833Z,17.2
2022-08-07T20:22:58.601Z,17.1
2022-08-07T20:25:24.342Z,17.0
2022-08-07T20:28:05.702Z,16.8
2022-08-07T20:30:39.941Z,16.7
2022-08-07T20:33:24.587Z,16.6
2022-08-07T20:35:52.092Z,16.5
2022-08-07T20:38:06.360Z,16.4
2022-08-07T20:40:40.530Z,16.4
2022-08-07T20:43:19.767Z,16.3
2022-08-07T20:46:25.095Z,16.2
2022-08-07T20:48:29.134Z,16.2
2022-08-07T20:50:51.565Z,16.2
2022-08-07T20:53:25.849Z,16.1
2022-08-07T20:58:36.029Z,16.1
2022-08-07T21:01:05.623Z,16.1
2022-08-07T21:03:38.782Z,16.2
2022-08-07T21:06:12.523Z,16.2
2022-08-07T21:08:37.412Z,16.2
2022-08-07T21:11:10.636Z,16.1
2022-08-07T21:13:57.685Z,16.1
2022-08-07T21:16:18.877Z,16.1
2022-08-07T21:18:50.374Z,16.2
2022-08-07T21:21:26.991Z,16.2
2022-08-07T21:23:57.348Z,16.2
2022-08-07T21:26:30.941Z,16.1
2022-08-07T21:29:03.414Z,16.1
2022-08-07T21:31:50.199Z,16.1
2022-08-07T21:34:03.708Z,16.0
2022-08-07T21:39:02.861Z,16.0
2022-08-07T21:41:52.479Z,15.9
2022-08-07T21:44:28.499Z,15.9
2022-08-07T21:46:53.039Z,15.9
2022-08-07T21:49:17.890Z,16.0
2022-08-07T21:51:51.561Z,16.0
2022-08-07T21:54:23.184Z,16.1
2022-08-07T21:57:06.512Z,16.0
2022-08-07T21:59:36.396Z,16.0
2022-08-07T22:02:08.014Z,16.0
2022-08-07T22:04:34.266Z,16.0
2022-08-07T22:07:04.670Z,15.9
2022-08-07T22:09:53.521Z,16.0
2022-08-07T22:12:16.367Z,16.0
2022-08-07T22:14:44.170Z,16.0
2022-08-07T22:19:50.226Z,16.2
2022-08-07T22:22:27.726Z,16.2
2022-08-07T22:24:57.557Z,16.1
2022-08-07T22:27:34.253Z,16.0
2022-08-07T22:30:03.580Z,16.0
2022-08-07T22:32:36.910Z,15.9
2022-08-07T22:35:01.091Z,15.8
2022-08-07T22:38:02.213Z,15.7
2022-08-07T22:40:16.322Z,15.7
2022-08-07T22:42:48.192Z,15.6
2022-08-07T22:46:05.021Z,15.6
2022-08-07T22:47:49.336Z,15.6
2022-08-07T22:50:20.531Z,15.5
2022-08-07T22:52:45.707Z,15.4
2022-08-07T22:55:29.797Z,15.6
2022-08-07T23:00:31.631Z,15.2
2022-08-07T23:03:03.980Z,15.0
2022-08-07T23:06:05.269Z,14.9
2022-08-07T23:08:04.774Z,14.8
2022-08-07T23:10:48.244Z,14.7
2022-08-07T23:13:14.270Z,14.6
2022-08-07T23:16:05.197Z,14.4
2022-08-07T23:18:18.875Z,14.3
2022-08-07T23:20:51.792Z,14.2
2022-08-07T23:24:04.954Z,14.1
2022-08-07T23:26:01.966Z,14.0
2022-08-07T23:28:29.317Z,13.9
2022-08-07T23:31:06.075Z,13.8
2022-08-07T23:34:48.775Z,13.6
2022-08-07T23:36:01.653Z,13.5
2022-08-07T23:41:13.569Z,13.3
2022-08-07T23:43:44.538Z,13.3
2022-08-07T23:46:11.744Z,13.2
2022-08-07T23:48:47.022Z,13.1
2022-08-07T23:52:59.063Z,13.0
2022-08-07T23:54:19.748Z,12.9
2022-08-07T23:56:31.282Z,12.8
2022-08-07T23:58:59.308Z,12.8
